createdAt,value
2023-11-30T00:04:54.310Z,93792.03
2023-11-30T00:09:56.368Z,93786.66
2023-11-30T00:14:58.681Z,93789.66
2023-11-30T00:20:00.860Z,93798.94
2023-11-30T00:25:03.030Z,93806.53
2023-11-30T00:30:05.710Z,93810.31
2023-11-30T00:35:08.072Z,93796.47
2023-11-30T00:40:10.791Z,93807.63
2023-11-30T00:45:12.940Z,93802.28
2023-11-30T00:50:15.281Z,93802.28
2023-11-30T00:55:17.366Z,93803.06
2023-11-30T01:00:19.738Z,93792.66
2023-11-30T01:05:21.810Z,93783.06
2023-11-30T01:10:23.859Z,93776.13
2023-11-30T01:15:25.973Z,93776.47
2023-11-30T01:20:28.273Z,93793.31
2023-11-30T01:25:30.258Z,93793.00
2023-11-30T01:30:32.414Z,93784.50
2023-11-30T01:35:35.544Z,93774.91
2023-11-30T01:40:38.792Z,93787.97
2023-11-30T01:45:41.015Z,93776.13
2023-11-30T01:50:44.736Z,93761.16
2023-11-30T01:55:47.029Z,93756.94
2023-11-30T02:00:49.606Z,93758.50
2023-11-30T02:05:52.909Z,93757.72
2023-11-30T02:10:55.031Z,93751.25
2023-11-30T02:15:57.258Z,93745.09
2023-11-30T02:20:59.494Z,93742.41
2023-11-30T02:26:01.735Z,93729.69
2023-11-30T02:31:04.109Z,93715.94
2023-11-30T02:36:06.723Z,93712.03
2023-11-30T02:41:09.370Z,93709.81
2023-11-30T02:46:12.708Z,93715.63
2023-11-30T02:51:14.874Z,93694.72
2023-11-30T02:56:17.228Z,93715.16
2023-11-30T03:01:19.420Z,93704.78
2023-11-30T03:06:22.114Z,93684.78
2023-11-30T03:11:24.353Z,93688.06
2023-11-30T03:16:27.695Z,93678.66
2023-11-30T03:21:30.953Z,93674.66
2023-11-30T03:26:34.031Z,93687.25
2023-11-30T03:31:39.512Z,93668.72
2023-11-30T03:36:42.900Z,93650.13
2023-11-30T03:41:45.084Z,93671.19
2023-11-30T03:46:47.885Z,93661.13
2023-11-30T03:51:50.075Z,93670.47
2023-11-30T03:56:52.187Z,93670.47
2023-11-30T04:01:55.748Z,93689.81
2023-11-30T04:06:57.924Z,93691.25
2023-11-30T04:12:01.259Z,93675.31
2023-11-30T04:17:04.735Z,93675.31
2023-11-30T04:22:07.146Z,93673.00
2023-11-30T04:27:09.431Z,93677.66
2023-11-30T04:32:11.515Z,93657.34
2023-11-30T04:37:13.766Z,93633.56
2023-11-30T04:42:16.100Z,93640.81
2023-11-30T04:47:18.306Z,93620.81
2023-11-30T04:52:21.127Z,93619.44
2023-11-30T04:57:23.231Z,93635.78
2023-11-30T05:02:25.714Z,93606.00
2023-11-30T05:07:27.768Z,93620.50
2023-11-30T05:12:29.904Z,93628.84
2023-11-30T05:17:32.162Z,93621.59
2023-11-30T05:22:34.269Z,93613.41
2023-11-30T05:27:36.370Z,93612.63
2023-11-30T05:32:38.563Z,93613.91
2023-11-30T05:37:40.973Z,93602.41
2023-11-30T05:42:43.606Z,93621.94
2023-11-30T05:47:45.750Z,93602.69
2023-11-30T05:52:48.575Z,93626.50
2023-11-30T05:57:50.598Z,93640.34
2023-11-30T06:02:52.795Z,93614.03
2023-11-30T06:07:54.837Z,93604.94
2023-11-30T06:12:56.915Z,93593.25
2023-11-30T06:17:59.034Z,93606.78
2023-11-30T06:23:01.229Z,93591.47
2023-11-30T06:28:03.340Z,93598.84
2023-11-30T06:33:05.596Z,93597.88
2023-11-30T06:38:08.008Z,93578.53
2023-11-30T06:43:10.722Z,93581.78
2023-11-30T06:48:12.901Z,93597.53
2023-11-30T06:53:14.999Z,93583.34
2023-11-30T06:58:17.066Z,93582.69
2023-11-30T07:03:19.376Z,93595.31
2023-11-30T07:08:21.558Z,93567.50
2023-11-30T07:13:23.654Z,93574.66
2023-11-30T07:18:25.869Z,93578.78
2023-11-30T07:23:27.932Z,93583.03
2023-11-30T07:28:30.190Z,93580.34
2023-11-30T07:33:32.413Z,93578.13
2023-11-30T07:38:34.576Z,93560.81
2023-11-30T07:43:36.976Z,93562.81
2023-11-30T07:48:39.061Z,93568.19
2023-11-30T07:53:41.160Z,93558.56
2023-11-30T07:58:45.353Z,93558.25
2023-11-30T08:03:48.355Z,93552.09
2023-11-30T08:08:50.575Z,93537.13
2023-11-30T08:13:52.648Z,93547.53
2023-11-30T08:18:54.794Z,93548.19
2023-11-30T08:23:57.107Z,93565.50
2023-11-30T08:28:59.207Z,93561.25
2023-11-30T08:34:01.453Z,93559.03
2023-11-30T08:39:04.882Z,93538.81
2023-11-30T08:44:06.994Z,93543.34
2023-11-30T08:49:11.629Z,93548.47
2023-11-30T08:54:13.581Z,93541.34
2023-11-30T08:59:15.730Z,93563.56
2023-11-30T09:04:18.072Z,93556.31
2023-11-30T09:09:20.540Z,93545.25
2023-11-30T09:14:23.066Z,93545.47
2023-11-30T09:19:25.566Z,93548.31
2023-11-30T09:24:27.621Z,93549.19
2023-11-30T09:29:30.223Z,93543.06
2023-11-30T09:34:32.194Z,93547.00
2023-11-30T09:39:34.343Z,93544.44
2023-11-30T09:44:36.465Z,93529.22
2023-11-30T09:49:39.481Z,93522.19
2023-11-30T09:54:41.575Z,93522.75
2023-11-30T09:59:44.035Z,93504.09
2023-11-30T10:04:49.708Z,93500.97
2023-11-30T10:09:51.882Z,93493.50
2023-11-30T10:15:01.446Z,93497.41
2023-11-30T10:20:07.532Z,93479.50
2023-11-30T10:25:10.212Z,93465.41
2023-11-30T10:30:13.955Z,93457.13
2023-11-30T10:35:18.143Z,93450.97
2023-11-30T10:40:22.124Z,93431.16
2023-11-30T10:45:27.436Z,93420.53
2023-11-30T10:50:33.104Z,93403.88
2023-11-30T10:55:35.450Z,93401.53
2023-11-30T11:00:37.806Z,93387.00
2023-11-30T11:05:45.604Z,93391.91
2023-11-30T11:10:49.137Z,93376.94
2023-11-30T11:16:01.560Z,93386.56
2023-11-30T11:21:03.954Z,93365.41
2023-11-30T11:26:06.953Z,93377.47
2023-11-30T11:31:09.247Z,93379.13
2023-11-30T11:36:14.741Z,93383.47
2023-11-30T11:41:19.552Z,93368.03
2023-11-30T11:46:21.840Z,93350.59
2023-11-30T11:51:25.795Z,93342.53
2023-11-30T11:56:28.507Z,93353.03
2023-11-30T12:01:39.122Z,93354.19
2023-11-30T12:06:41.449Z,93344.03
2023-11-30T12:11:43.646Z,93346.72
2023-11-30T12:16:45.871Z,93345.94
2023-11-30T12:21:48.421Z,93341.06
2023-11-30T12:26:51.029Z,93338.38
2023-11-30T12:31:54.789Z,93334.47
2023-11-30T12:36:58.570Z,93325.97
2023-11-30T12:42:02.773Z,93345.88
2023-11-30T12:47:06.013Z,93343.44
2023-11-30T12:52:08.376Z,93330.38
2023-11-30T12:57:10.695Z,93333.50
2023-11-30T13:02:13.227Z,93328.56
2023-11-30T13:07:15.728Z,93317.38
2023-11-30T13:12:17.964Z,93331.25
2023-11-30T13:17:20.276Z,93332.47
2023-11-30T13:22:22.969Z,93328.66
2023-11-30T13:27:25.356Z,93325.97
2023-11-30T13:32:36.502Z,93316.81
2023-11-30T13:37:39.596Z,93315.34
2023-11-30T13:42:41.971Z,93329.09
2023-11-30T13:47:49.031Z,93328.41
2023-11-30T13:52:51.353Z,93330.75
2023-11-30T13:57:53.571Z,93319.69
2023-11-30T14:02:55.901Z,93331.44
2023-11-30T14:07:58.597Z,93337.50
2023-11-30T14:13:01.103Z,93340.06
2023-11-30T14:18:03.445Z,93322.66
2023-11-30T14:23:05.713Z,93334.09
2023-11-30T14:28:12.530Z,93338.25
2023-11-30T14:33:15.733Z,93329.72
2023-11-30T14:38:17.983Z,93331.97
2023-11-30T14:43:20.266Z,93341.50
2023-11-30T14:48:24.236Z,93357.16
2023-11-30T14:53:26.453Z,93348.22
2023-11-30T14:58:28.870Z,93340.88
2023-11-30T15:03:32.687Z,93338.88
2023-11-30T15:08:36.382Z,93368.72
2023-11-30T15:13:38.569Z,93356.78
2023-11-30T15:18:40.830Z,93356.34
2023-11-30T15:23:43.080Z,93351.63
2023-11-30T15:28:45.459Z,93355.44
2023-11-30T15:33:47.702Z,93355.75
2023-11-30T15:38:49.944Z,93358.00
2023-11-30T15:43:52.684Z,93356.69
2023-11-30T15:48:55.184Z,93351.00
2023-11-30T15:53:57.430Z,93346.75
2023-11-30T15:58:59.677Z,93357.81
2023-11-30T16:04:01.932Z,93353.91
2023-11-30T16:09:04.432Z,93350.00
2023-11-30T16:14:06.555Z,93349.22
2023-11-30T16:19:09.040Z,93346.88
2023-11-30T16:24:11.968Z,93355.63
2023-11-30T16:29:14.353Z,93366.00
2023-11-30T16:34:19.716Z,93353.25
2023-11-30T16:39:24.230Z,93358.94
2023-11-30T16:44:28.069Z,93366.66
2023-11-30T16:49:30.663Z,93369.56
2023-11-30T16:54:33.434Z,93369.56
2023-11-30T16:59:35.908Z,93375.81
2023-11-30T17:04:38.175Z,93371.66
2023-11-30T17:09:40.711Z,93377.78
2023-11-30T17:14:43.354Z,93375.22
2023-11-30T17:19:45.559Z,93372.78
2023-11-30T17:24:47.853Z,93363.19
2023-11-30T17:29:50.380Z,93366.97
2023-11-30T17:34:53.227Z,93364.19
2023-11-30T17:39:55.731Z,93368.78
2023-11-30T17:44:58.016Z,93365.66
2023-11-30T17:50:02.291Z,93354.84
2023-11-30T17:55:06.243Z,93359.06
2023-11-30T18:00:09.456Z,93354.06
2023-11-30T18:05:14.685Z,93350.13
2023-11-30T18:10:17.001Z,93360.84
2023-11-30T18:15:19.277Z,93344.31
2023-11-30T18:20:21.521Z,93343.53
2023-11-30T18:25:24.113Z,93335.50
2023-11-30T18:30:26.467Z,93349.25
2023-11-30T18:35:28.721Z,93341.53
2023-11-30T18:40:30.973Z,93347.25
2023-11-30T18:45:33.227Z,93344.91
2023-11-30T18:50:36.755Z,93352.94
2023-11-30T18:55:39.009Z,93362.88
2023-11-30T19:00:41.261Z,93364.34
2023-11-30T19:05:43.728Z,93363.56
2023-11-30T19:10:46.184Z,93352.41
2023-11-30T19:15:48.666Z,93347.81
2023-11-30T19:20:50.932Z,93339.00
2023-11-30T19:25:53.304Z,93336.63
2023-11-30T19:30:55.563Z,93335.06
2023-11-30T19:35:58.093Z,93324.34
2023-11-30T19:41:01.843Z,93323.91
2023-11-30T19:46:04.328Z,93327.34
2023-11-30T19:51:06.978Z,93336.53
2023-11-30T19:56:18.301Z,93338.41
2023-11-30T20:01:21.961Z,93337.63
2023-11-30T20:06:24.405Z,93332.47
2023-11-30T20:11:26.616Z,93335.59
2023-11-30T20:16:28.848Z,93340.19
2023-11-30T20:21:31.052Z,93344.78
2023-11-30T20:26:33.232Z,93339.75
2023-11-30T20:31:35.489Z,93342.44
2023-11-30T20:36:37.801Z,93345.88
2023-11-30T20:41:39.982Z,93353.81
2023-11-30T20:46:42.466Z,93354.59
2023-11-30T20:51:44.991Z,93353.03
2023-11-30T20:56:48.757Z,93349.59
2023-11-30T21:01:51.109Z,93363.75
2023-11-30T21:06:53.522Z,93361.41
2023-11-30T21:11:55.917Z,93366.34
2023-11-30T21:16:58.115Z,93368.69
2023-11-30T21:22:00.343Z,93370.59
2023-11-30T21:27:02.578Z,93354.50
2023-11-30T21:32:05.110Z,93349.13
2023-11-30T21:37:07.665Z,93355.19
2023-11-30T21:42:11.735Z,93370.91
2023-11-30T21:47:13.980Z,93384.97
2023-11-30T21:52:16.689Z,93370.00
2023-11-30T21:57:18.864Z,93378.50
2023-11-30T22:02:21.217Z,93375.81
2023-11-30T22:07:23.494Z,93382.78
2023-11-30T22:12:25.654Z,93397.72
2023-11-30T22:17:28.722Z,93382.28
2023-11-30T22:22:30.897Z,93384.63
2023-11-30T22:27:33.008Z,93389.69
2023-11-30T22:32:35.501Z,93384.63
2023-11-30T22:37:37.872Z,93385.91
2023-11-30T22:42:40.163Z,93386.34
2023-11-30T22:47:42.511Z,93378.28
2023-11-30T22:52:44.836Z,93378.63
2023-11-30T22:57:47.202Z,93388.13
2023-11-30T23:02:49.679Z,93392.38
2023-11-30T23:07:52.105Z,93383.84
2023-11-30T23:12:55.453Z,93377.72
2023-11-30T23:17:57.648Z,93388.44
2023-11-30T23:22:59.859Z,93388.44
2023-11-30T23:28:02.338Z,93381.84
2023-11-30T23:33:07.868Z,93376.50
2023-11-30T23:38:10.268Z,93365.78
2023-11-30T23:43:12.590Z,93368.44
2023-11-30T23:48:14.861Z,93363.44
2023-11-30T23:53:17.093Z,93351.47
2023-11-30T23:58:19.260Z,93358.41
